sensor_id;sensor_type;location;lat;lon;timestamp;temperature;humidity
19188;DHT22;9726;52.198;8.792;2024-03-22T00:01:53;9.30;83.00
19188;DHT22;9726;52.198;8.792;2024-03-22T00:04:19;9.30;82.90
19188;DHT22;9726;52.198;8.792;2024-03-22T00:06:47;9.30;83.00
19188;DHT22;9726;52.198;8.792;2024-03-22T00:09:14;9.40;82.80
19188;DHT22;9726;52.198;8.792;2024-03-22T00:11:41;9.40;82.80
19188;DHT22;9726;52.198;8.792;2024-03-22T00:14:08;9.40;82.60
19188;DHT22;9726;52.198;8.792;2024-03-22T00:16:35;9.40;82.70
19188;DHT22;9726;52.198;8.792;2024-03-22T00:19:02;9.50;82.50
19188;DHT22;9726;52.198;8.792;2024-03-22T00:21:28;9.50;82.50
19188;DHT22;9726;52.198;8.792;2024-03-22T00:23:56;9.50;82.40
19188;DHT22;9726;52.198;8.792;2024-03-22T00:26:22;9.50;82.20
19188;DHT22;9726;52.198;8.792;2024-03-22T00:28:48;9.60;82.30
19188;DHT22;9726;52.198;8.792;2024-03-22T00:31:16;9.50;82.30
19188;DHT22;9726;52.198;8.792;2024-03-22T00:33:42;9.60;82.30
19188;DHT22;9726;52.198;8.792;2024-03-22T00:36:08;9.60;82.30
19188;DHT22;9726;52.198;8.792;2024-03-22T00:38:34;9.60;82.30
19188;DHT22;9726;52.198;8.792;2024-03-22T00:41:01;9.60;82.40
19188;DHT22;9726;52.198;8.792;2024-03-22T00:43:27;9.60;82.30
19188;DHT22;9726;52.198;8.792;2024-03-22T00:45:53;9.60;82.30
19188;DHT22;9726;52.198;8.792;2024-03-22T00:48:19;9.60;82.10
19188;DHT22;9726;52.198;8.792;2024-03-22T00:50:45;9.70;82.00
19188;DHT22;9726;52.198;8.792;2024-03-22T00:53:12;9.70;82.00
19188;DHT22;9726;52.198;8.792;2024-03-22T00:55:38;9.70;81.90
19188;DHT22;9726;52.198;8.792;2024-03-22T00:58:05;9.70;82.00
19188;DHT22;9726;52.198;8.792;2024-03-22T01:00:31;9.70;82.00
19188;DHT22;9726;52.198;8.792;2024-03-22T01:02:57;9.70;82.00
19188;DHT22;9726;52.198;8.792;2024-03-22T01:05:23;9.70;82.00
19188;DHT22;9726;52.198;8.792;2024-03-22T01:07:49;9.70;82.20
19188;DHT22;9726;52.198;8.792;2024-03-22T01:10:15;9.70;82.20
19188;DHT22;9726;52.198;8.792;2024-03-22T01:12:41;9.70;82.20
19188;DHT22;9726;52.198;8.792;2024-03-22T01:15:08;9.70;82.20
19188;DHT22;9726;52.198;8.792;2024-03-22T01:17:34;9.70;82.30
19188;DHT22;9726;52.198;8.792;2024-03-22T01:20:01;9.80;82.20
19188;DHT22;9726;52.198;8.792;2024-03-22T01:22:29;9.70;82.40
19188;DHT22;9726;52.198;8.792;2024-03-22T01:24:55;9.70;82.30
19188;DHT22;9726;52.198;8.792;2024-03-22T01:27:21;9.80;82.40
19188;DHT22;9726;52.198;8.792;2024-03-22T01:29:47;9.70;82.40
19188;DHT22;9726;52.198;8.792;2024-03-22T01:32:13;9.70;82.50
19188;DHT22;9726;52.198;8.792;2024-03-22T01:34:39;9.80;82.30
19188;DHT22;9726;52.198;8.792;2024-03-22T01:37:06;9.70;82.50
19188;DHT22;9726;52.198;8.792;2024-03-22T01:39:32;9.70;82.50
19188;DHT22;9726;52.198;8.792;2024-03-22T01:41:58;9.80;82.40
19188;DHT22;9726;52.198;8.792;2024-03-22T01:44:28;9.80;82.30
19188;DHT22;9726;52.198;8.792;2024-03-22T01:46:55;9.80;82.30
19188;DHT22;9726;52.198;8.792;2024-03-22T01:49:21;9.80;82.30
19188;DHT22;9726;52.198;8.792;2024-03-22T01:51:48;9.90;82.30
19188;DHT22;9726;52.198;8.792;2024-03-22T01:54:16;9.90;83.00
19188;DHT22;9726;52.198;8.792;2024-03-22T01:56:42;9.80;83.50
19188;DHT22;9726;52.198;8.792;2024-03-22T01:59:08;9.80;83.80
19188;DHT22;9726;52.198;8.792;2024-03-22T02:01:35;9.80;83.70
19188;DHT22;9726;52.198;8.792;2024-03-22T02:04:02;9.80;84.00
19188;DHT22;9726;52.198;8.792;2024-03-22T02:06:28;9.80;84.10
19188;DHT22;9726;52.198;8.792;2024-03-22T02:08:56;9.80;84.00
19188;DHT22;9726;52.198;8.792;2024-03-22T02:11:22;9.80;84.10
19188;DHT22;9726;52.198;8.792;2024-03-22T02:13:48;9.80;84.00
19188;DHT22;9726;52.198;8.792;2024-03-22T02:16:14;9.80;83.70
19188;DHT22;9726;52.198;8.792;2024-03-22T02:18:40;9.80;83.90
19188;DHT22;9726;52.198;8.792;2024-03-22T02:21:07;9.80;83.80
19188;DHT22;9726;52.198;8.792;2024-03-22T02:23:33;9.90;83.70
19188;DHT22;9726;52.198;8.792;2024-03-22T02:26:00;9.90;83.70
19188;DHT22;9726;52.198;8.792;2024-03-22T02:28:27;9.90;83.70
19188;DHT22;9726;52.198;8.792;2024-03-22T02:30:53;9.90;84.00
19188;DHT22;9726;52.198;8.792;2024-03-22T02:33:19;9.90;84.20
19188;DHT22;9726;52.198;8.792;2024-03-22T02:35:49;9.90;84.50
19188;DHT22;9726;52.198;8.792;2024-03-22T02:38:16;9.90;84.80
19188;DHT22;9726;52.198;8.792;2024-03-22T02:40:46;9.80;85.00
19188;DHT22;9726;52.198;8.792;2024-03-22T02:43:12;9.90;85.10
19188;DHT22;9726;52.198;8.792;2024-03-22T02:45:39;9.90;84.90
19188;DHT22;9726;52.198;8.792;2024-03-22T02:48:05;9.90;85.00
19188;DHT22;9726;52.198;8.792;2024-03-22T02:50:36;9.90;84.90
19188;DHT22;9726;52.198;8.792;2024-03-22T02:53:03;9.90;84.80
19188;DHT22;9726;52.198;8.792;2024-03-22T02:55:30;10.00;84.70
19188;DHT22;9726;52.198;8.792;2024-03-22T02:58:01;10.00;84.60
19188;DHT22;9726;52.198;8.792;2024-03-22T03:00:28;10.00;84.50
19188;DHT22;9726;52.198;8.792;2024-03-22T03:02:54;10.00;84.40
19188;DHT22;9726;52.198;8.792;2024-03-22T03:05:20;10.00;84.50
19188;DHT22;9726;52.198;8.792;2024-03-22T03:07:48;10.00;84.40
19188;DHT22;9726;52.198;8.792;2024-03-22T03:10:14;10.00;84.50
19188;DHT22;9726;52.198;8.792;2024-03-22T03:12:41;10.10;84.50
19188;DHT22;9726;52.198;8.792;2024-03-22T03:15:07;10.10;84.50
19188;DHT22;9726;52.198;8.792;2024-03-22T03:17:33;10.10;84.50
19188;DHT22;9726;52.198;8.792;2024-03-22T03:19:59;10.10;84.40
19188;DHT22;9726;52.198;8.792;2024-03-22T03:22:25;10.10;84.50
19188;DHT22;9726;52.198;8.792;2024-03-22T03:24:52;10.10;84.60
19188;DHT22;9726;52.198;8.792;2024-03-22T03:27:18;10.10;84.70
19188;DHT22;9726;52.198;8.792;2024-03-22T03:29:44;10.00;85.60
19188;DHT22;9726;52.198;8.792;2024-03-22T03:32:10;10.10;86.00
19188;DHT22;9726;52.198;8.792;2024-03-22T03:34:36;10.00;86.40
19188;DHT22;9726;52.198;8.792;2024-03-22T03:37:02;10.00;86.40
19188;DHT22;9726;52.198;8.792;2024-03-22T03:39:28;10.00;86.70
19188;DHT22;9726;52.198;8.792;2024-03-22T03:41:55;9.90;86.90
19188;DHT22;9726;52.198;8.792;2024-03-22T03:44:21;9.90;87.10
19188;DHT22;9726;52.198;8.792;2024-03-22T03:46:48;9.90;87.20
19188;DHT22;9726;52.198;8.792;2024-03-22T03:49:14;9.90;87.20
19188;DHT22;9726;52.198;8.792;2024-03-22T03:51:40;9.90;87.30
19188;DHT22;9726;52.198;8.792;2024-03-22T03:54:06;9.90;87.00
19188;DHT22;9726;52.198;8.792;2024-03-22T03:56:32;9.90;87.00
19188;DHT22;9726;52.198;8.792;2024-03-22T03:58:58;9.90;87.10
19188;DHT22;9726;52.198;8.792;2024-03-22T04:01:24;10.00;86.90
19188;DHT22;9726;52.198;8.792;2024-03-22T04:03:50;10.00;87.00
19188;DHT22;9726;52.198;8.792;2024-03-22T04:06:16;9.90;87.00
19188;DHT22;9726;52.198;8.792;2024-03-22T04:08:42;10.00;87.10
19188;DHT22;9726;52.198;8.792;2024-03-22T04:11:09;10.00;86.90
19188;DHT22;9726;52.198;8.792;2024-03-22T04:13:37;10.00;86.70
19188;DHT22;9726;52.198;8.792;2024-03-22T04:16:03;10.00;86.80
19188;DHT22;9726;52.198;8.792;2024-03-22T04:18:29;10.00;86.60
19188;DHT22;9726;52.198;8.792;2024-03-22T04:20:57;10.10;86.30
19188;DHT22;9726;52.198;8.792;2024-03-22T04:23:23;10.10;86.30
19188;DHT22;9726;52.198;8.792;2024-03-22T04:25:58;10.10;86.10
19188;DHT22;9726;52.198;8.792;2024-03-22T04:28:27;10.10;86.10
19188;DHT22;9726;52.198;8.792;2024-03-22T04:31:01;10.10;86.10
19188;DHT22;9726;52.198;8.792;2024-03-22T04:33:29;10.10;86.10
19188;DHT22;9726;52.198;8.792;2024-03-22T04:35:56;10.00;86.30
19188;DHT22;9726;52.198;8.792;2024-03-22T04:38:23;10.00;86.50
19188;DHT22;9726;52.198;8.792;2024-03-22T04:40:49;10.00;86.50
19188;DHT22;9726;52.198;8.792;2024-03-22T04:43:16;10.00;86.60
19188;DHT22;9726;52.198;8.792;2024-03-22T04:45:46;9.90;86.70
19188;DHT22;9726;52.198;8.792;2024-03-22T04:51:29;9.90;86.90
19188;DHT22;9726;52.198;8.792;2024-03-22T04:53:55;9.90;86.80
19188;DHT22;9726;52.198;8.792;2024-03-22T04:56:21;9.90;86.90
19188;DHT22;9726;52.198;8.792;2024-03-22T04:58:47;9.90;86.80
19188;DHT22;9726;52.198;8.792;2024-03-22T05:01:13;9.90;86.80
19188;DHT22;9726;52.198;8.792;2024-03-22T05:03:40;9.90;86.90
19188;DHT22;9726;52.198;8.792;2024-03-22T05:06:07;9.80;87.00
19188;DHT22;9726;52.198;8.792;2024-03-22T05:08:33;9.90;87.00
19188;DHT22;9726;52.198;8.792;2024-03-22T05:10:59;9.90;86.90
19188;DHT22;9726;52.198;8.792;2024-03-22T05:13:25;10.00;86.70
19188;DHT22;9726;52.198;8.792;2024-03-22T05:15:51;10.10;86.40
19188;DHT22;9726;52.198;8.792;2024-03-22T05:18:17;10.10;86.20
19188;DHT22;9726;52.198;8.792;2024-03-22T05:20:44;10.10;86.20
19188;DHT22;9726;52.198;8.792;2024-03-22T05:23:10;10.20;85.90
19188;DHT22;9726;52.198;8.792;2024-03-22T05:25:36;10.20;85.70
19188;DHT22;9726;52.198;8.792;2024-03-22T05:28:02;10.30;85.70
19188;DHT22;9726;52.198;8.792;2024-03-22T05:30:31;10.30;85.50
19188;DHT22;9726;52.198;8.792;2024-03-22T05:33:02;10.30;85.20
19188;DHT22;9726;52.198;8.792;2024-03-22T05:35:28;10.30;85.30
19188;DHT22;9726;52.198;8.792;2024-03-22T05:37:54;10.40;84.90
19188;DHT22;9726;52.198;8.792;2024-03-22T05:40:20;10.40;84.90
19188;DHT22;9726;52.198;8.792;2024-03-22T05:42:49;10.40;85.00
19188;DHT22;9726;52.198;8.792;2024-03-22T05:45:15;10.40;84.80
19188;DHT22;9726;52.198;8.792;2024-03-22T05:47:41;10.40;84.70
19188;DHT22;9726;52.198;8.792;2024-03-22T05:50:08;10.50;84.80
19188;DHT22;9726;52.198;8.792;2024-03-22T05:52:35;10.50;84.60
19188;DHT22;9726;52.198;8.792;2024-03-22T05:55:01;10.50;84.60
19188;DHT22;9726;52.198;8.792;2024-03-22T05:57:28;10.50;84.50
19188;DHT22;9726;52.198;8.792;2024-03-22T05:59:54;10.60;84.30
19188;DHT22;9726;52.198;8.792;2024-03-22T06:02:20;10.60;84.10
19188;DHT22;9726;52.198;8.792;2024-03-22T06:04:46;10.60;84.00
19188;DHT22;9726;52.198;8.792;2024-03-22T06:07:13;10.70;84.00
19188;DHT22;9726;52.198;8.792;2024-03-22T06:09:40;10.70;83.80
19188;DHT22;9726;52.198;8.792;2024-03-22T06:12:13;10.70;83.80
19188;DHT22;9726;52.198;8.792;2024-03-22T06:14:40;10.70;83.60
19188;DHT22;9726;52.198;8.792;2024-03-22T06:17:06;10.70;83.40
19188;DHT22;9726;52.198;8.792;2024-03-22T06:19:32;10.80;83.50
19188;DHT22;9726;52.198;8.792;2024-03-22T06:21:59;10.80;83.20
19188;DHT22;9726;52.198;8.792;2024-03-22T06:24:25;10.80;83.10
19188;DHT22;9726;52.198;8.792;2024-03-22T06:26:51;10.90;83.00
19188;DHT22;9726;52.198;8.792;2024-03-22T06:29:17;10.90;82.90
19188;DHT22;9726;52.198;8.792;2024-03-22T06:31:43;10.90;82.90
19188;DHT22;9726;52.198;8.792;2024-03-22T06:34:09;11.00;82.70
19188;DHT22;9726;52.198;8.792;2024-03-22T06:36:35;11.00;82.70
19188;DHT22;9726;52.198;8.792;2024-03-22T06:39:02;11.00;82.60
19188;DHT22;9726;52.198;8.792;2024-03-22T06:41:34;11.10;82.50
19188;DHT22;9726;52.198;8.792;2024-03-22T06:44:00;11.10;82.50
19188;DHT22;9726;52.198;8.792;2024-03-22T06:46:26;11.10;82.40
19188;DHT22;9726;52.198;8.792;2024-03-22T06:48:52;11.10;82.30
19188;DHT22;9726;52.198;8.792;2024-03-22T06:51:19;11.20;82.10
19188;DHT22;9726;52.198;8.792;2024-03-22T06:53:45;11.20;82.10
19188;DHT22;9726;52.198;8.792;2024-03-22T06:56:14;11.20;82.10
19188;DHT22;9726;52.198;8.792;2024-03-22T06:58:40;11.30;82.00
19188;DHT22;9726;52.198;8.792;2024-03-22T07:01:06;11.30;81.90
19188;DHT22;9726;52.198;8.792;2024-03-22T07:03:32;11.30;81.90
19188;DHT22;9726;52.198;8.792;2024-03-22T07:05:59;11.30;81.70
19188;DHT22;9726;52.198;8.792;2024-03-22T07:08:26;11.40;81.70
19188;DHT22;9726;52.198;8.792;2024-03-22T07:10:53;11.40;81.70
19188;DHT22;9726;52.198;8.792;2024-03-22T07:13:20;11.40;81.70
19188;DHT22;9726;52.198;8.792;2024-03-22T07:15:47;11.40;81.40
19188;DHT22;9726;52.198;8.792;2024-03-22T07:18:14;11.50;81.10
19188;DHT22;9726;52.198;8.792;2024-03-22T07:20:41;11.60;80.70
19188;DHT22;9726;52.198;8.792;2024-03-22T07:23:08;11.60;80.60
19188;DHT22;9726;52.198;8.792;2024-03-22T07:25:34;11.70;80.40
19188;DHT22;9726;52.198;8.792;2024-03-22T07:28:00;11.70;80.30
19188;DHT22;9726;52.198;8.792;2024-03-22T07:30:26;11.80;80.00
19188;DHT22;9726;52.198;8.792;2024-03-22T07:32:52;11.80;80.00
19188;DHT22;9726;52.198;8.792;2024-03-22T07:35:18;11.80;79.90
19188;DHT22;9726;52.198;8.792;2024-03-22T07:37:44;11.90;79.90
19188;DHT22;9726;52.198;8.792;2024-03-22T07:40:11;11.90;79.80
19188;DHT22;9726;52.198;8.792;2024-03-22T07:42:37;12.00;79.40
19188;DHT22;9726;52.198;8.792;2024-03-22T07:45:03;12.00;79.30
19188;DHT22;9726;52.198;8.792;2024-03-22T07:47:30;12.00;79.20
19188;DHT22;9726;52.198;8.792;2024-03-22T07:49:56;12.00;79.20
19188;DHT22;9726;52.198;8.792;2024-03-22T07:52:22;12.00;79.00
19188;DHT22;9726;52.198;8.792;2024-03-22T07:54:50;12.00;79.00
19188;DHT22;9726;52.198;8.792;2024-03-22T07:57:16;12.00;79.00
19188;DHT22;9726;52.198;8.792;2024-03-22T07:59:42;12.10;78.90
19188;DHT22;9726;52.198;8.792;2024-03-22T08:02:10;12.20;78.20
19188;DHT22;9726;52.198;8.792;2024-03-22T08:04:36;12.30;78.00
19188;DHT22;9726;52.198;8.792;2024-03-22T08:07:02;12.40;77.50
19188;DHT22;9726;52.198;8.792;2024-03-22T08:09:28;12.40;77.30
19188;DHT22;9726;52.198;8.792;2024-03-22T08:11:54;12.40;77.10
19188;DHT22;9726;52.198;8.792;2024-03-22T08:14:20;12.50;76.80
19188;DHT22;9726;52.198;8.792;2024-03-22T08:16:46;12.60;76.40
19188;DHT22;9726;52.198;8.792;2024-03-22T08:19:12;12.60;76.50
19188;DHT22;9726;52.198;8.792;2024-03-22T08:21:39;12.80;76.20
19188;DHT22;9726;52.198;8.792;2024-03-22T08:24:05;13.00;75.10
19188;DHT22;9726;52.198;8.792;2024-03-22T08:26:31;13.20;74.10
19188;DHT22;9726;52.198;8.792;2024-03-22T08:28:57;13.00;74.10
19188;DHT22;9726;52.198;8.792;2024-03-22T08:31:23;13.00;74.40
19188;DHT22;9726;52.198;8.792;2024-03-22T08:33:52;13.10;74.30
19188;DHT22;9726;52.198;8.792;2024-03-22T08:36:18;13.00;74.20
19188;DHT22;9726;52.198;8.792;2024-03-22T08:38:44;13.10;74.00
19188;DHT22;9726;52.198;8.792;2024-03-22T08:41:10;13.20;73.90
19188;DHT22;9726;52.198;8.792;2024-03-22T08:43:36;13.30;73.20
19188;DHT22;9726;52.198;8.792;2024-03-22T08:46:03;13.40;72.70
19188;DHT22;9726;52.198;8.792;2024-03-22T08:48:29;13.50;72.10
19188;DHT22;9726;52.198;8.792;2024-03-22T08:50:55;13.50;72.00
19188;DHT22;9726;52.198;8.792;2024-03-22T08:53:21;13.50;72.00
19188;DHT22;9726;52.198;8.792;2024-03-22T08:55:48;13.70;71.60
19188;DHT22;9726;52.198;8.792;2024-03-22T08:58:15;13.80;71.30
19188;DHT22;9726;52.198;8.792;2024-03-22T09:00:44;13.80;70.50
19188;DHT22;9726;52.198;8.792;2024-03-22T09:03:10;13.70;70.60
19188;DHT22;9726;52.198;8.792;2024-03-22T09:05:36;13.60;70.80
19188;DHT22;9726;52.198;8.792;2024-03-22T09:08:03;13.50;71.10
19188;DHT22;9726;52.198;8.792;2024-03-22T09:10:30;13.30;71.40
19188;DHT22;9726;52.198;8.792;2024-03-22T09:12:56;13.20;72.10
19188;DHT22;9726;52.198;8.792;2024-03-22T09:15:22;13.10;72.50
19188;DHT22;9726;52.198;8.792;2024-03-22T09:17:48;13.10;72.70
19188;DHT22;9726;52.198;8.792;2024-03-22T09:20:14;13.10;72.80
19188;DHT22;9726;52.198;8.792;2024-03-22T09:22:40;13.10;72.80
19188;DHT22;9726;52.198;8.792;2024-03-22T09:25:07;13.00;72.80
19188;DHT22;9726;52.198;8.792;2024-03-22T09:27:33;13.00;72.20
19188;DHT22;9726;52.198;8.792;2024-03-22T09:29:59;13.00;72.40
19188;DHT22;9726;52.198;8.792;2024-03-22T09:32:27;13.10;71.80
19188;DHT22;9726;52.198;8.792;2024-03-22T09:34:54;13.30;71.50
19188;DHT22;9726;52.198;8.792;2024-03-22T09:37:20;13.40;70.70
19188;DHT22;9726;52.198;8.792;2024-03-22T09:39:46;13.50;70.70
19188;DHT22;9726;52.198;8.792;2024-03-22T09:42:16;13.60;70.10
19188;DHT22;9726;52.198;8.792;2024-03-22T09:44:49;13.60;69.70
19188;DHT22;9726;52.198;8.792;2024-03-22T09:47:17;13.40;70.20
19188;DHT22;9726;52.198;8.792;2024-03-22T09:49:44;13.30;71.20
19188;DHT22;9726;52.198;8.792;2024-03-22T09:52:13;13.10;75.70
19188;DHT22;9726;52.198;8.792;2024-03-22T09:54:41;12.50;79.30
19188;DHT22;9726;52.198;8.792;2024-03-22T09:57:18;12.20;82.50
19188;DHT22;9726;52.198;8.792;2024-03-22T09:59:45;12.10;84.10
19188;DHT22;9726;52.198;8.792;2024-03-22T10:02:12;12.10;83.60
19188;DHT22;9726;52.198;8.792;2024-03-22T10:04:43;12.10;83.40
19188;DHT22;9726;52.198;8.792;2024-03-22T10:07:09;12.10;84.90
19188;DHT22;9726;52.198;8.792;2024-03-22T10:09:36;12.10;86.00
19188;DHT22;9726;52.198;8.792;2024-03-22T10:12:03;12.20;85.40
19188;DHT22;9726;52.198;8.792;2024-03-22T10:14:29;12.30;85.90
19188;DHT22;9726;52.198;8.792;2024-03-22T10:16:57;12.30;83.40
19188;DHT22;9726;52.198;8.792;2024-03-22T10:19:24;12.50;82.60
19188;DHT22;9726;52.198;8.792;2024-03-22T10:22:01;12.60;82.30
19188;DHT22;9726;52.198;8.792;2024-03-22T10:24:28;12.60;79.90
19188;DHT22;9726;52.198;8.792;2024-03-22T10:26:54;12.70;80.00
19188;DHT22;9726;52.198;8.792;2024-03-22T10:29:21;12.70;79.70
19188;DHT22;9726;52.198;8.792;2024-03-22T10:31:50;12.80;78.30
19188;DHT22;9726;52.198;8.792;2024-03-22T10:34:17;12.90;77.00
19188;DHT22;9726;52.198;8.792;2024-03-22T10:36:46;13.10;75.80
19188;DHT22;9726;52.198;8.792;2024-03-22T10:39:16;13.10;74.30
19188;DHT22;9726;52.198;8.792;2024-03-22T10:41:47;13.20;73.90
19188;DHT22;9726;52.198;8.792;2024-03-22T10:44:14;13.30;72.00
19188;DHT22;9726;52.198;8.792;2024-03-22T10:46:49;13.50;71.10
19188;DHT22;9726;52.198;8.792;2024-03-22T10:49:21;13.70;70.70
19188;DHT22;9726;52.198;8.792;2024-03-22T10:51:51;13.90;70.10
19188;DHT22;9726;52.198;8.792;2024-03-22T10:54:24;13.90;69.30
19188;DHT22;9726;52.198;8.792;2024-03-22T10:56:53;13.70;69.10
19188;DHT22;9726;52.198;8.792;2024-03-22T10:59:21;13.70;69.90
19188;DHT22;9726;52.198;8.792;2024-03-22T11:01:49;13.60;69.80
19188;DHT22;9726;52.198;8.792;2024-03-22T11:04:22;13.70;70.70
19188;DHT22;9726;52.198;8.792;2024-03-22T11:06:52;13.70;70.10
19188;DHT22;9726;52.198;8.792;2024-03-22T11:09:27;13.60;69.60
19188;DHT22;9726;52.198;8.792;2024-03-22T11:11:54;13.40;70.20
19188;DHT22;9726;52.198;8.792;2024-03-22T11:14:20;13.40;70.60
19188;DHT22;9726;52.198;8.792;2024-03-22T11:16:47;13.30;71.00
19188;DHT22;9726;52.198;8.792;2024-03-22T11:19:13;13.20;71.20
19188;DHT22;9726;52.198;8.792;2024-03-22T11:21:39;13.10;71.50
19188;DHT22;9726;52.198;8.792;2024-03-22T11:24:06;13.10;71.20
19188;DHT22;9726;52.198;8.792;2024-03-22T11:26:33;13.10;71.60
19188;DHT22;9726;52.198;8.792;2024-03-22T11:28:59;13.00;71.70
19188;DHT22;9726;52.198;8.792;2024-03-22T11:31:26;13.00;71.50
19188;DHT22;9726;52.198;8.792;2024-03-22T11:33:56;12.90;71.60
19188;DHT22;9726;52.198;8.792;2024-03-22T11:36:23;12.90;71.80
19188;DHT22;9726;52.198;8.792;2024-03-22T11:38:49;12.90;72.10
19188;DHT22;9726;52.198;8.792;2024-03-22T11:41:24;12.80;72.10
19188;DHT22;9726;52.198;8.792;2024-03-22T11:43:51;12.70;72.70
19188;DHT22;9726;52.198;8.792;2024-03-22T11:46:18;12.70;72.50
19188;DHT22;9726;52.198;8.792;2024-03-22T11:48:51;12.60;73.30
19188;DHT22;9726;52.198;8.792;2024-03-22T11:51:17;12.60;73.40
19188;DHT22;9726;52.198;8.792;2024-03-22T11:53:51;12.60;73.40
19188;DHT22;9726;52.198;8.792;2024-03-22T11:56:18;12.60;73.70
19188;DHT22;9726;52.198;8.792;2024-03-22T11:58:49;12.60;73.90
19188;DHT22;9726;52.198;8.792;2024-03-22T12:01:18;12.50;74.20
19188;DHT22;9726;52.198;8.792;2024-03-22T12:03:47;12.40;74.70
19188;DHT22;9726;52.198;8.792;2024-03-22T12:06:15;12.40;75.40
19188;DHT22;9726;52.198;8.792;2024-03-22T12:08:41;12.30;76.00
19188;DHT22;9726;52.198;8.792;2024-03-22T12:11:08;12.30;76.40
19188;DHT22;9726;52.198;8.792;2024-03-22T12:13:35;12.20;76.60
19188;DHT22;9726;52.198;8.792;2024-03-22T12:16:04;12.10;77.30
19188;DHT22;9726;52.198;8.792;2024-03-22T12:18:31;12.10;77.30
19188;DHT22;9726;52.198;8.792;2024-03-22T12:20:57;12.00;77.60
19188;DHT22;9726;52.198;8.792;2024-03-22T12:23:24;12.00;77.70
19188;DHT22;9726;52.198;8.792;2024-03-22T12:25:51;11.90;78.10
19188;DHT22;9726;52.198;8.792;2024-03-22T12:28:18;11.90;78.60
19188;DHT22;9726;52.198;8.792;2024-03-22T12:30:44;11.80;78.50
19188;DHT22;9726;52.198;8.792;2024-03-22T12:33:11;11.80;78.90
19188;DHT22;9726;52.198;8.792;2024-03-22T12:35:39;11.80;79.30
19188;DHT22;9726;52.198;8.792;2024-03-22T12:38:13;11.80;79.20
19188;DHT22;9726;52.198;8.792;2024-03-22T12:40:40;11.80;79.50
19188;DHT22;9726;52.198;8.792;2024-03-22T12:43:09;11.80;79.60
19188;DHT22;9726;52.198;8.792;2024-03-22T12:45:36;11.70;79.50
19188;DHT22;9726;52.198;8.792;2024-03-22T12:48:02;11.70;79.90
19188;DHT22;9726;52.198;8.792;2024-03-22T12:50:28;11.70;80.00
19188;DHT22;9726;52.198;8.792;2024-03-22T12:52:55;11.70;80.00
19188;DHT22;9726;52.198;8.792;2024-03-22T12:55:21;11.60;80.30
19188;DHT22;9726;52.198;8.792;2024-03-22T12:57:47;11.60;80.60
19188;DHT22;9726;52.198;8.792;2024-03-22T13:00:13;11.60;80.90
19188;DHT22;9726;52.198;8.792;2024-03-22T13:06:28;11.60;80.80
19188;DHT22;9726;52.198;8.792;2024-03-22T13:08:54;11.60;80.70
19188;DHT22;9726;52.198;8.792;2024-03-22T13:11:20;11.50;81.00
19188;DHT22;9726;52.198;8.792;2024-03-22T13:13:47;11.40;81.00
19188;DHT22;9726;52.198;8.792;2024-03-22T13:16:13;11.40;81.40
19188;DHT22;9726;52.198;8.792;2024-03-22T13:18:41;11.50;81.40
19188;DHT22;9726;52.198;8.792;2024-03-22T13:21:08;11.50;81.20
19188;DHT22;9726;52.198;8.792;2024-03-22T13:23:34;11.60;81.00
19188;DHT22;9726;52.198;8.792;2024-03-22T13:26:04;11.60;80.60
19188;DHT22;9726;52.198;8.792;2024-03-22T13:28:31;11.60;80.80
19188;DHT22;9726;52.198;8.792;2024-03-22T13:31:04;11.60;80.50
19188;DHT22;9726;52.198;8.792;2024-03-22T13:33:34;11.60;80.60
19188;DHT22;9726;52.198;8.792;2024-03-22T13:36:01;11.60;80.90
19188;DHT22;9726;52.198;8.792;2024-03-22T13:38:27;11.50;80.90
19188;DHT22;9726;52.198;8.792;2024-03-22T13:40:58;11.50;81.20
19188;DHT22;9726;52.198;8.792;2024-03-22T13:43:28;11.40;81.40
19188;DHT22;9726;52.198;8.792;2024-03-22T13:45:54;11.40;81.60
19188;DHT22;9726;52.198;8.792;2024-03-22T13:48:22;11.50;81.50
19188;DHT22;9726;52.198;8.792;2024-03-22T13:50:53;11.50;81.10
19188;DHT22;9726;52.198;8.792;2024-03-22T13:53:21;11.50;81.50
19188;DHT22;9726;52.198;8.792;2024-03-22T13:55:51;11.50;81.40
19188;DHT22;9726;52.198;8.792;2024-03-22T13:58:19;11.50;81.40
19188;DHT22;9726;52.198;8.792;2024-03-22T14:00:45;11.50;82.20
19188;DHT22;9726;52.198;8.792;2024-03-22T14:03:11;11.40;82.60
19188;DHT22;9726;52.198;8.792;2024-03-22T14:05:38;11.30;84.60
19188;DHT22;9726;52.198;8.792;2024-03-22T14:08:05;11.10;85.40
19188;DHT22;9726;52.198;8.792;2024-03-22T14:10:31;11.00;85.80
19188;DHT22;9726;52.198;8.792;2024-03-22T14:12:58;10.90;86.20
19188;DHT22;9726;52.198;8.792;2024-03-22T14:15:25;11.00;87.10
19188;DHT22;9726;52.198;8.792;2024-03-22T14:17:54;11.00;87.10
19188;DHT22;9726;52.198;8.792;2024-03-22T14:20:26;11.00;88.30
19188;DHT22;9726;52.198;8.792;2024-03-22T14:22:52;11.00;88.70
19188;DHT22;9726;52.198;8.792;2024-03-22T14:25:18;11.00;89.00
19188;DHT22;9726;52.198;8.792;2024-03-22T14:27:45;10.90;89.00
19188;DHT22;9726;52.198;8.792;2024-03-22T14:30:13;10.80;89.30
19188;DHT22;9726;52.198;8.792;2024-03-22T14:32:41;10.80;89.90
19188;DHT22;9726;52.198;8.792;2024-03-22T14:35:08;10.70;90.00
19188;DHT22;9726;52.198;8.792;2024-03-22T14:37:35;10.70;90.60
19188;DHT22;9726;52.198;8.792;2024-03-22T14:40:02;10.70;90.70
19188;DHT22;9726;52.198;8.792;2024-03-22T14:42:31;10.60;90.80
19188;DHT22;9726;52.198;8.792;2024-03-22T14:44:57;10.60;90.80
19188;DHT22;9726;52.198;8.792;2024-03-22T14:47:23;10.60;91.40
19188;DHT22;9726;52.198;8.792;2024-03-22T14:49:49;10.60;91.30
19188;DHT22;9726;52.198;8.792;2024-03-22T14:52:17;10.60;91.60
19188;DHT22;9726;52.198;8.792;2024-03-22T14:54:43;10.60;92.10
19188;DHT22;9726;52.198;8.792;2024-03-22T14:57:10;10.60;92.40
19188;DHT22;9726;52.198;8.792;2024-03-22T14:59:36;10.50;93.50
19188;DHT22;9726;52.198;8.792;2024-03-22T15:02:03;10.50;93.50
19188;DHT22;9726;52.198;8.792;2024-03-22T15:04:29;10.40;94.00
19188;DHT22;9726;52.198;8.792;2024-03-22T15:06:55;10.30;94.40
19188;DHT22;9726;52.198;8.792;2024-03-22T15:09:21;10.30;94.70
19188;DHT22;9726;52.198;8.792;2024-03-22T15:11:50;10.30;95.10
19188;DHT22;9726;52.198;8.792;2024-03-22T15:14:16;10.30;95.10
19188;DHT22;9726;52.198;8.792;2024-03-22T15:16:43;10.20;95.10
19188;DHT22;9726;52.198;8.792;2024-03-22T15:19:09;10.20;95.70
19188;DHT22;9726;52.198;8.792;2024-03-22T15:21:36;10.20;96.00
19188;DHT22;9726;52.198;8.792;2024-03-22T15:24:03;10.20;96.20
19188;DHT22;9726;52.198;8.792;2024-03-22T15:26:29;10.20;95.80
19188;DHT22;9726;52.198;8.792;2024-03-22T15:28:56;10.20;95.80
19188;DHT22;9726;52.198;8.792;2024-03-22T15:31:22;10.20;95.80
19188;DHT22;9726;52.198;8.792;2024-03-22T15:33:49;10.20;95.80
19188;DHT22;9726;52.198;8.792;2024-03-22T15:36:15;10.20;95.80
19188;DHT22;9726;52.198;8.792;2024-03-22T15:38:41;10.20;96.00
19188;DHT22;9726;52.198;8.792;2024-03-22T15:41:07;10.20;96.20
19188;DHT22;9726;52.198;8.792;2024-03-22T15:43:35;10.20;96.90
19188;DHT22;9726;52.198;8.792;2024-03-22T15:46:01;10.30;96.80
19188;DHT22;9726;52.198;8.792;2024-03-22T15:48:27;10.20;96.20
19188;DHT22;9726;52.198;8.792;2024-03-22T15:50:56;10.20;96.60
19188;DHT22;9726;52.198;8.792;2024-03-22T15:53:22;10.20;97.00
19188;DHT22;9726;52.198;8.792;2024-03-22T15:55:49;10.20;97.20